Date,TemperatureHighF,TemperatureAvgF,TemperatureLowF,DewpointHighF,DewpointAvgF,DewpointLowF,HumidityHigh,HumidityAvg,HumidityLow,PressureMaxIn,PressureMinIn,WindSpeedMaxMPH,WindSpeedAvgMPH,GustSpeedMaxMPH,PrecipitationSumIn
2012-1-1,52.0,41.0,28.0,-99.9,-99.9,-99.9,0,0,100,0.00,40.00,18,-734,18,0.00
2012-1-2,42.0,35.0,26.0,-99.9,-99.9,-99.9,0,0,100,0.00,40.00,9,-706,13,0.00
2012-1-3,26.0,21.3,11.0,-99.9,-99.9,-99.9,0,0,100,0.00,40.00,7,-648,17,0.00
2012-1-4,26.0,16.6,7.0,-99.9,-99.9,-99.9,0,0,100,0.00,40.00,5,-959,10,0.00
2012-1-5,38.0,27.5,16.0,-99.9,-99.9,-99.9,0,0,100,0.00,40.00,7,-882,12,0.00
2012-1-6,50.0,33.7,22.0,-99.9,-99.9,-99.9,0,0,100,0.00,40.00,8,-877,12,0.00
2012-1-7,59.0,37.9,24.0,-99.9,-99.9,-99.9,0,0,100,0.00,40.00,5,-834,13,0.00
2012-1-8,43.0,33.3,23.0,-99.9,-99.9,-99.9,0,0,100,0.00,40.00,6,-827,11,0.00
2012-1-9,40.0,29.6,22.0,-99.9,-99.9,-99.9,0,0,100,0.00,40.00,6,-959,10,0.00
2012-1-10,45.0,33.9,25.0,-99.9,-99.9,-99.9,0,0,100,0.00,40.00,7,-818,11,0.00
2012-1-11,47.0,33.8,21.0,-99.9,-99.9,-99.9,0,0,100,0.00,40.00,9,-873,12,0.00
2012-1-12,44.0,39.5,38.0,-99.9,-99.9,-99.9,0,0,100,0.00,40.00,6,-866,13,0.00
2012-1-13,46.0,32.5,25.0,-99.9,-99.9,-99.9,0,0,100,0.00,40.00,14,-475,30,0.00
2012-1-14,31.0,26.7,24.0,-99.9,-99.9,-99.9,0,0,100,0.00,40.00,3,-911,11,0.00
2012-1-15,24.0,16.7,11.0,-99.9,-99.9,-99.9,0,0,100,0.00,40.00,7,-771,14,0.00
2012-1-16,32.0,21.9,7.0,-99.9,-99.9,-99.9,0,0,100,0.00,40.00,13,-720,19,0.00
2012-1-17,39.0,35.4,31.0,-99.9,-99.9,-99.9,0,0,100,0.00,40.00,3,-965,6,0.00
2012-1-18,39.0,31.0,19.0,-99.9,-99.9,-99.9,0,0,100,0.00,40.00,9,-703,16,0.00
2012-1-19,31.0,23.4,10.0,-99.9,-99.9,-99.9,0,0,100,0.00,40.00,9,-961,14,0.00
2012-1-20,30.0,25.4,20.0,-99.9,-99.9,-99.9,0,0,100,0.00,40.00,7,-890,12,0.00
2012-1-21,25.0,20.8,11.0,-99.9,-99.9,-99.9,0,0,100,0.00,40.00,7,-877,13,0.00
2012-1-22,29.0,19.0,5.0,-99.9,-99.9,-99.9,0,0,100,0.00,40.00,0,-999,7,0.00
2012-1-23,44.0,35.3,27.0,-99.9,-99.9,-99.9,0,0,100,0.00,40.00,0,-999,9,0.00
2012-1-24,48.0,39.9,36.0,-99.9,-99.9,-99.9,0,0,100,0.00,40.00,7,-905,9,0.00
2012-1-25,41.0,36.2,32.0,-99.9,-99.9,-99.9,0,0,100,0.00,40.00,6,-888,12,0.00
2012-1-26,36.0,33.9,32.0,-99.9,-99.9,-99.9,0,0,100,0.00,40.00,0,-999,0,0.00
2012-1-27,51.0,40.8,34.0,-99.9,-99.9,-99.9,0,0,100,0.00,40.00,9,-698,19,0.00
2012-1-28,44.0,38.4,31.0,-99.9,-99.9,-99.9,0,0,100,0.00,40.00,7,-824,14,0.00
2012-1-29,42.0,33.2,27.0,-99.9,-99.9,-99.9,0,0,100,0.00,40.00,9,-902,16,0.00
2012-1-30,37.0,32.2,27.0,-99.9,-99.9,-99.9,0,0,100,0.00,40.00,4,-956,11,0.00
2012-1-31,53.0,38.0,27.0,-99.9,-99.9,-99.9,0,0,100,0.00,40.00,9,-816,15,0.00
2012-2-1,59.0,43.2,31.0,-99.9,-99.9,-99.9,0,0,100,0.00,40.00,9,-914,11,0.00
2012-2-2,43.0,36.4,31.0,-99.9,-99.9,-99.9,0,0,100,0.00,40.00,9,-698,14,0.00
2012-2-3,43.0,33.3,27.0,-99.9,-99.9,-99.9,0,0,100,0.00,40.00,8,-862,14,0.00
2012-2-4,44.0,33.6,24.0,-99.9,-99.9,-99.9,0,0,100,0.00,40.00,3,-957,8,0.00
2012-2-5,40.0,31.2,23.0,-99.9,-99.9,-99.9,0,0,100,0.00,40.00,0,-999,11,0.00
2012-2-6,52.0,34.1,19.0,-99.9,-99.9,-99.9,0,0,100,0.00,40.00,6,-905,14,0.00
2012-2-7,47.0,34.3,23.0,-99.9,-99.9,-99.9,0,0,100,0.00,40.00,6,-866,12,0.00
2012-2-8,36.0,30.6,28.0,-99.9,-99.9,-99.9,0,0,100,0.00,40.00,11,-954,11,0.00
2012-2-9,45.0,31.3,22.0,-99.9,-99.9,-99.9,0,0,100,0.00,40.00,0,-999,8,0.00
2012-2-10,41.0,32.1,20.0,-99.9,-99.9,-99.9,0,0,100,0.00,40.00,3,-913,14,0.00
2012-2-11,38.0,32.8,23.0,-99.9,-99.9,-99.9,0,0,100,0.00,40.00,7,-844,20,0.00
2012-2-12,29.0,23.4,17.0,-99.9,-99.9,-99.9,0,0,100,0.00,40.00,11,-762,21,0.00
2012-2-13,41.0,31.0,23.0,-99.9,-99.9,-99.9,0,0,100,0.00,40.00,7,-778,14,0.00
2012-2-14,46.0,35.7,26.0,-99.9,-99.9,-99.9,0,0,100,0.00,40.00,0,-999,8,0.00
2012-2-15,42.0,35.2,26.0,-99.9,-99.9,-99.9,0,0,100,0.00,40.00,0,-999,5,0.00
2012-2-16,39.0,31.1,23.0,-99.9,-99.9,-99.9,0,0,100,0.00,40.00,0,-999,0,0.00
2012-2-17,48.0,39.2,27.0,-99.9,-99.9,-99.9,0,0,100,0.00,40.00,7,-781,13,0.00
2012-2-18,47.0,35.2,25.0,-99.9,-99.9,-99.9,0,0,100,0.00,40.00,9,-824,16,0.00
2012-2-19,44.0,35.3,28.0,-99.9,-99.9,-99.9,0,0,100,0.00,40.00,8,-868,12,0.00
2012-2-20,44.0,33.8,22.0,-99.9,-99.9,-99.9,0,0,100,0.00,40.00,7,-610,14,0.00
2012-2-21,47.0,33.2,18.0,-99.9,-99.9,-99.9,0,0,100,0.00,40.00,10,-824,18,0.00
2012-2-22,56.0,44.3,33.0,-99.9,-99.9,-99.9,0,0,100,0.00,40.00,8,-849,18,0.00
2012-2-23,55.0,44.0,34.0,-99.9,-99.9,-99.9,0,0,100,0.00,40.00,12,-843,17,0.00
2012-2-24,41.0,37.3,33.0,-99.9,-99.9,-99.9,0,0,100,0.00,40.00,9,-903,11,0.00
2012-2-25,42.0,37.2,31.0,-99.9,-99.9,-99.9,0,0,100,0.00,40.00,6,-698,22,0.00
2012-2-26,42.0,31.8,24.0,-99.9,-99.9,-99.9,0,0,100,0.00,40.00,5,-955,13,0.00
2012-2-27,54.0,36.9,20.0,-99.9,-99.9,-99.9,0,0,100,0.00,40.00,9,-909,12,0.00
2012-2-28,48.0,39.6,32.0,-99.9,-99.9,-99.9,0,0,100,0.00,40.00,8,-721,14,0.00
2012-2-29,38.0,33.3,29.0,-99.9,-99.9,-99.9,0,0,100,0.00,40.00,0,-999,7,0.00
2012-3-1,39.0,35.5,33.0,-99.9,-99.9,-99.9,0,0,100,0.00,40.00,0,-999,5,0.00
2012-3-2,39.0,36.6,34.0,-99.9,-99.9,-99.9,0,0,100,0.00,40.00,5,-735,13,0.00
2012-3-3,55.0,44.3,37.0,-99.9,-99.9,-99.9,0,0,100,0.00,40.00,10,-770,21,0.00
2012-3-4,41.0,34.9,28.0,-99.9,-99.9,-99.9,0,0,100,0.00,40.00,5,-914,11,0.00
2012-3-5,41.0,32.0,23.0,-99.9,-99.9,-99.9,0,0,100,0.00,40.00,7,-767,11,0.00
2012-3-6,41.0,29.3,20.0,-99.9,-99.9,-99.9,0,0,100,0.00,40.00,8,-945,11,0.00
2012-3-7,60.0,41.4,24.0,-99.9,-99.9,-99.9,0,0,100,0.00,40.00,7,-752,15,0.00
2012-3-8,69.0,58.8,37.0,-99.9,-99.9,-99.9,0,0,100,0.00,40.00,15,-425,25,0.00
2012-3-9,60.0,40.6,31.0,-99.9,-99.9,-99.9,0,0,100,0.00,40.00,13,-525,22,0.00
2012-3-10,41.0,31.9,23.0,-99.9,-99.9,-99.9,0,0,100,0.00,40.00,13,-726,21,0.00
2012-3-11,60.0,41.9,20.0,-99.9,-99.9,-99.9,0,0,100,0.00,40.00,14,-834,15,0.00
2012-3-12,67.0,48.3,29.0,-99.9,-99.9,-99.9,0,0,100,0.00,40.00,8,-913,10,0.00
2012-3-13,73.0,57.4,46.0,-99.9,-99.9,-99.9,0,0,100,0.00,40.00,8,-669,17,0.00
2012-3-14,69.0,52.6,38.0,-99.9,-99.9,-99.9,0,0,100,0.00,40.00,8,-862,13,0.00
2012-3-15,57.0,45.5,36.0,-99.9,-99.9,-99.9,0,0,100,0.00,40.00,8,-755,10,0.00
2012-3-16,56.0,47.0,41.0,-99.9,-99.9,-99.9,0,0,100,0.00,40.00,8,-822,10,0.00
2012-3-17,69.0,50.8,36.0,-99.9,-99.9,-99.9,0,0,100,0.00,40.00,6,-798,10,0.00
2012-3-18,65.0,50.9,42.0,-99.9,-99.9,-99.9,0,0,100,0.00,40.00,8,-824,11,0.00
2012-3-19,77.0,57.8,42.0,-99.9,-99.9,-99.9,0,0,100,0.00,40.00,8,-689,16,0.00
2012-3-20,74.0,59.9,47.0,-99.9,-99.9,-99.9,0,0,100,0.00,40.00,9,-780,10,0.00
2012-3-21,65.0,59.3,52.0,-99.9,-99.9,-99.9,0,0,100,0.00,40.00,0,-999,0,0.00
2012-3-22,75.0,61.4,52.0,-99.9,-99.9,-99.9,0,0,100,0.00,40.00,8,-729,13,0.00
2012-3-23,77.0,61.6,49.0,-99.9,-99.9,-99.9,0,0,100,0.00,40.00,6,-698,14,0.00
2012-3-24,63.0,55.0,49.0,-99.9,-99.9,-99.9,0,0,100,0.00,40.00,8,-811,12,0.00
2012-3-25,58.0,48.8,44.0,-99.9,-99.9,-99.9,0,0,100,0.00,40.00,8,-832,10,0.00
2012-3-26,50.0,44.0,30.0,-99.9,-99.9,-99.9,0,0,100,0.00,40.00,13,-565,26,0.00
2012-3-27,50.0,36.6,26.0,-99.9,-99.9,-99.9,0,0,100,0.00,40.00,8,-875,15,0.00
2012-3-28,65.0,47.5,32.0,-99.9,-99.9,-99.9,0,0,100,0.00,40.00,5,-819,18,0.00
2012-3-29,55.0,47.8,41.0,-99.9,-99.9,-99.9,0,0,100,0.00,40.00,11,-545,17,0.00
2012-3-30,55.0,45.5,31.0,-99.9,-99.9,-99.9,0,0,100,0.00,40.00,7,-821,13,0.00
2012-3-31,41.0,39.6,38.0,-99.9,-99.9,-99.9,0,0,100,0.00,40.00,6,-905,8,0.00
2012-4-1,49.0,43.2,38.0,-99.9,-99.9,-99.9,0,0,100,0.00,40.00,0,-999,0,0.00
2012-4-2,56.0,43.7,35.0,-99.9,-99.9,-99.9,0,0,100,0.00,40.00,9,-584,24,0.00
2012-4-3,64.0,43.8,27.0,-99.9,-99.9,-99.9,0,0,100,0.00,40.00,9,-841,15,0.00
2012-4-4,67.0,54.5,42.0,-99.9,-99.9,-99.9,0,0,100,0.00,40.00,11,-535,17,0.00
2012-4-5,57.0,44.2,32.0,-99.9,-99.9,-99.9,0,0,100,0.00,40.00,8,-774,13,0.00
2012-4-6,57.0,42.9,28.0,-99.9,-99.9,-99.9,0,0,100,0.00,40.00,11,-537,21,0.00
2012-4-7,60.0,44.9,27.0,-99.9,-99.9,-99.9,0,0,100,0.00,40.00,7,-616,18,0.00
2012-4-8,67.0,49.1,29.0,-99.9,-99.9,-99.9,0,0,100,0.00,40.00,10,-706,17,0.00
2012-4-9,62.0,52.2,40.0,-99.9,-99.9,-99.9,0,0,100,0.00,40.00,19,-470,19,0.00
2012-4-10,58.0,45.0,34.0,-99.9,-99.9,-99.9,0,0,100,0.00,40.00,11,-807,17,0.00
2012-4-11,50.0,41.9,33.0,-99.9,-99.9,-99.9,0,0,100,0.00,40.00,6,-849,10,0.00
2012-4-12,58.0,46.3,37.0,-99.9,-99.9,-99.9,0,0,100,0.00,40.00,9,-570,17,0.00
2012-4-13,63.0,46.8,29.0,-99.9,-99.9,-99.9,0,0,100,0.00,40.00,6,-906,15,0.00
2012-4-14,70.0,52.7,31.0,-99.9,-99.9,-99.9,0,0,100,0.00,40.00,6,-804,14,0.00
2012-4-15,75.0,62.1,53.0,-99.9,-99.9,-99.9,0,0,100,0.00,40.00,7,-659,13,0.00
2012-4-16,89.0,68.0,48.0,-99.9,-99.9,-99.9,0,0,100,0.00,40.00,8,-712,15,0.00
2012-4-17,75.0,63.8,56.0,-99.9,-99.9,-99.9,0,0,100,0.00,40.00,10,-766,14,0.00
2012-4-18,58.0,52.1,43.0,-99.9,-99.9,-99.9,0,0,100,0.00,40.00,6,-680,11,0.00
2012-4-19,63.0,51.7,47.0,-99.9,-99.9,-99.9,0,0,100,0.00,40.00,5,-913,7,0.00
2012-4-23,40.0,39.8,39.0,-99.9,-99.9,-99.9,0,0,100,29.41,29.41,4,3,6,0.00
2012-4-24,58.0,46.0,38.0,-99.9,-99.9,-99.9,0,0,100,29.73,29.41,10,-510,21,0.00
2012-4-25,60.0,44.1,30.0,-99.9,-99.9,-99.9,0,0,100,29.93,29.73,12,-884,13,0.00
2012-4-26,59.0,47.0,32.0,-99.9,-99.9,-99.9,0,0,100,29.94,29.62,5,-924,10,0.00
2012-4-27,54.0,44.9,33.0,-99.9,-99.9,-99.9,0,0,100,30.18,29.64,11,-548,18,0.00
2012-4-28,58.0,45.2,29.0,-99.9,-99.9,-99.9,0,0,100,30.27,30.11,11,-632,12,0.00
2012-4-29,63.0,47.9,30.0,-99.9,-99.9,-99.9,0,0,100,30.29,30.10,10,-638,18,0.00
2012-4-30,64.0,50.0,29.0,-99.9,-99.9,-99.9,0,0,100,30.36,30.17,7,-702,14,0.00
2012-5-1,70.0,57.7,49.0,-99.9,-99.9,-99.9,0,0,100,30.17,29.98,4,-832,6,0.00
2012-5-2,55.0,52.4,49.0,-99.9,-99.9,-99.9,0,0,100,30.17,30.07,0,-999,10,0.00
2012-5-3,62.0,54.8,49.0,-99.9,-99.9,-99.9,0,0,100,30.16,30.08,0,-999,10,0.00
2012-5-4,75.0,62.0,55.0,-99.9,-99.9,-99.9,0,0,100,30.11,29.87,0,-999,8,0.00
2012-5-5,73.0,62.7,56.0,-99.9,-99.9,-99.9,0,0,100,30.06,29.89,6,-837,9,0.00
2012-5-6,66.0,57.4,50.0,-99.9,-99.9,-99.9,0,0,100,30.13,30.05,9,-796,10,0.00
2012-5-7,62.0,55.9,50.0,-99.9,-99.9,-99.9,0,0,100,30.14,30.08,6,-801,9,0.00
2012-5-8,64.0,57.3,51.0,-99.9,-99.9,-99.9,0,0,100,30.08,29.84,9,-767,13,0.00
2012-5-9,73.0,61.8,56.0,-99.9,-99.9,-99.9,0,0,100,29.84,29.63,6,-834,7,0.00
2012-5-10,61.0,54.2,42.0,-99.9,-99.9,-99.9,0,0,100,29.87,29.55,6,-642,11,0.00
2012-5-11,68.0,54.4,37.0,-99.9,-99.9,-99.9,0,0,100,30.16,29.87,15,-650,17,0.00
2012-5-12,77.0,58.7,38.0,-99.9,-99.9,-99.9,0,0,100,30.27,30.15,8,-801,10,0.00
2012-5-13,79.0,64.9,50.0,-99.9,-99.9,-99.9,0,0,100,30.21,30.09,7,-834,9,0.00
2012-5-14,63.0,60.7,57.0,-99.9,-99.9,-99.9,0,0,100,30.16,30.11,0,-999,11,0.00
2012-5-15,68.0,63.3,60.0,-99.9,-99.9,-99.9,0,0,100,30.12,29.93,6,-868,13,0.00
2012-5-16,79.0,68.0,61.0,-99.9,-99.9,-99.9,0,0,100,29.96,29.84,11,-621,11,0.00
2012-5-17,70.0,59.1,47.0,-99.9,-99.9,-99.9,0,0,100,30.17,29.96,8,-602,14,0.00
2012-5-18,73.0,58.8,42.0,-99.9,-99.9,-99.9,0,0,100,30.24,30.15,6,-864,9,0.00
2012-5-19,80.0,62.3,42.0,-99.9,-99.9,-99.9,0,0,100,30.21,30.11,5,-834,10,0.00
2012-5-20,81.0,65.6,47.0,-99.9,-99.9,-99.9,0,0,100,30.24,30.19,12,-816,12,0.00
2012-5-21,65.0,60.2,55.0,-99.9,-99.9,-99.9,0,0,100,30.22,30.01,7,-860,8,0.00
2012-5-22,72.0,64.6,60.0,-99.9,-99.9,-99.9,0,0,100,30.01,29.83,0,-999,6,0.00
2012-5-23,75.0,67.1,63.0,-99.9,-99.9,-99.9,0,0,100,29.89,29.88,0,-999,7,0.00
2012-5-24,71.0,66.3,63.0,-99.9,-99.9,-99.9,0,0,100,0.00,40.00,6,-718,10,0.00
2012-5-25,76.0,67.9,62.0,-99.9,-99.9,-99.9,0,0,100,0.00,40.00,5,-864,8,0.00
2012-5-26,85.0,69.9,61.0,-99.9,-99.9,-99.9,0,0,100,0.00,40.00,6,-781,9,0.00
2012-5-27,80.0,71.5,64.0,-99.9,-99.9,-99.9,0,0,100,0.00,40.00,8,-773,8,0.00
2012-5-28,85.0,73.9,64.0,-99.9,-99.9,-99.9,0,0,100,0.00,40.00,5,-776,7,0.00
2012-5-29,89.0,73.9,66.0,-99.9,-99.9,-99.9,0,0,100,0.00,40.00,5,-684,14,0.00
2012-5-30,76.0,68.3,62.0,-99.9,-99.9,-99.9,0,0,100,0.00,40.00,5,-847,9,0.00
2012-5-31,78.0,66.2,57.0,-99.9,-99.9,-99.9,0,0,100,0.00,40.00,8,-778,12,0.00
2012-6-1,69.0,61.5,51.0,-99.9,-99.9,-99.9,0,0,100,0.00,40.00,11,-591,14,0.00
2012-6-2,72.0,63.3,51.0,-99.9,-99.9,-99.9,0,0,100,0.00,40.00,10,-675,10,0.00
2012-6-3,73.0,61.0,47.0,-99.9,-99.9,-99.9,0,0,100,0.00,40.00,7,-775,12,0.00
2012-6-4,61.0,56.0,51.0,-99.9,-99.9,-99.9,0,0,100,0.00,40.00,8,-841,14,0.00
2012-6-5,64.0,54.8,44.0,-99.9,-99.9,-99.9,0,0,100,0.00,40.00,5,-905,11,0.00
2012-6-6,71.0,59.9,46.0,-99.9,-99.9,-99.9,0,0,100,0.00,40.00,6,-908,11,0.00
2012-6-7,75.0,61.3,51.0,-99.9,-99.9,-99.9,0,0,100,0.00,40.00,14,-816,10,0.00
2012-6-8,80.0,65.2,50.0,-99.9,-99.9,-99.9,0,0,100,0.00,40.00,5,-823,10,0.00
2012-6-9,76.0,64.4,54.0,-99.9,-99.9,-99.9,0,0,100,0.00,40.00,3,-952,9,0.00
2012-6-10,82.0,70.3,61.0,-99.9,-99.9,-99.9,0,0,100,0.00,40.00,5,-859,6,0.00
2012-6-11,78.0,69.3,61.0,-99.9,-99.9,-99.9,0,0,100,0.00,40.00,6,-637,12,0.00
2012-6-12,70.0,65.9,64.0,-99.9,-99.9,-99.9,0,0,100,0.00,40.00,7,-887,11,0.00
2012-6-13,73.0,65.6,57.0,-99.9,-99.9,-99.9,0,0,100,0.00,40.00,6,-824,16,0.00
2012-6-14,74.0,61.8,53.0,-99.9,-99.9,-99.9,0,0,100,0.00,40.00,6,-933,6,0.00
2012-6-15,76.0,66.7,56.0,-99.9,-99.9,-99.9,0,0,100,0.00,40.00,4,-898,10,0.00
2012-6-16,78.0,65.7,52.0,-99.9,-99.9,-99.9,0,0,100,0.00,40.00,5,-874,10,0.00
2012-6-17,71.0,63.8,57.0,-99.9,-99.9,-99.9,0,0,100,0.00,40.00,7,-806,9,0.00
2012-6-18,69.0,62.6,54.0,-99.9,-99.9,-99.9,0,0,100,0.00,40.00,7,-610,7,0.00
2012-6-19,74.0,67.0,61.0,-99.9,-99.9,-99.9,0,0,100,0.00,40.00,8,-775,9,0.00
2012-6-20,92.0,77.9,63.0,-99.9,-99.9,-99.9,0,0,100,0.00,40.00,6,-856,7,0.00
2012-6-21,92.0,79.3,67.0,-99.9,-99.9,-99.9,0,0,100,0.00,40.00,5,-754,9,0.00
2012-6-22,86.0,76.1,69.0,-99.9,-99.9,-99.9,0,0,100,0.00,40.00,3,-849,7,0.00
2012-6-23,84.0,72.9,61.0,-99.9,-99.9,-99.9,0,0,100,0.00,40.00,6,-621,10,0.00
2012-6-24,82.0,68.6,54.0,-99.9,-99.9,-99.9,0,0,100,0.00,40.00,5,-909,8,0.00
2012-6-25,72.0,65.3,57.0,-99.9,-99.9,-99.9,0,0,100,0.00,40.00,3,-832,8,0.00
2012-6-26,75.0,61.8,49.0,-99.9,-99.9,-99.9,0,0,100,0.00,40.00,8,-587,11,0.00
2012-6-27,81.0,65.1,49.0,-99.9,-99.9,-99.9,0,0,100,0.00,40.00,6,-734,11,0.00
2012-6-28,87.0,73.0,57.0,-99.9,-99.9,-99.9,0,0,100,0.00,40.00,4,-912,8,0.00
2012-6-29,93.0,78.1,64.0,-99.9,-99.9,-99.9,0,0,100,0.00,40.00,5,-919,10,0.00
2012-6-30,91.0,78.5,65.0,-99.9,-99.9,-99.9,0,0,100,0.00,40.00,4,-844,8,0.00
2012-7-1,92.0,74.0,62.0,-99.9,-99.9,-99.9,0,0,100,0.00,40.00,5,-748,11,0.00
2012-7-2,85.0,70.5,58.0,-99.9,-99.9,-99.9,0,0,100,0.00,40.00,6,-778,11,0.00
2012-7-3,88.0,72.6,57.0,-99.9,-99.9,-99.9,0,0,100,0.00,40.00,5,-953,8,0.00
2012-7-4,88.0,76.2,68.0,-99.9,-99.9,-99.9,0,0,100,0.00,40.00,5,-871,7,0.00
2012-7-5,90.0,77.0,64.0,-99.9,-99.9,-99.9,0,0,100,0.00,40.00,5,-778,8,0.00
2012-7-6,89.0,72.9,56.0,-99.9,-99.9,-99.9,0,0,100,0.00,40.00,6,-909,8,0.00
2012-7-7,93.0,77.6,67.0,-99.9,-99.9,-99.9,0,0,100,0.00,40.00,5,-826,10,0.00
2012-7-8,87.0,75.0,68.0,-99.9,-99.9,-99.9,0,0,100,0.00,40.00,0,-999,6,0.00
2012-7-9,81.0,71.9,63.0,-99.9,-99.9,-99.9,0,0,100,0.00,40.00,5,-856,8,0.00
2012-7-10,85.0,71.4,57.0,-99.9,-99.9,-99.9,0,0,100,0.00,40.00,5,-843,10,0.00
2012-7-11,84.0,71.4,62.0,-99.9,-99.9,-99.9,0,0,100,0.00,40.00,5,-836,8,0.00
2012-7-12,87.0,73.0,59.0,-99.9,-99.9,-99.9,0,0,100,0.00,40.00,5,-910,9,0.00
2012-7-13,85.0,73.6,64.0,-99.9,-99.9,-99.9,0,0,100,0.00,40.00,0,-999,0,0.00
2012-7-14,82.0,73.1,67.0,-99.9,-99.9,-99.9,0,0,100,0.00,40.00,7,-861,8,0.00
2012-7-15,87.0,74.4,68.0,-99.9,-99.9,-99.9,0,0,100,0.00,40.00,2,-947,9,0.00
2012-7-16,87.0,73.6,66.0,-99.9,-99.9,-99.9,0,0,100,0.00,40.00,0,-999,0,0.00
2012-7-17,93.0,76.7,62.0,-99.9,-99.9,-99.9,0,0,100,0.00,40.00,4,-789,12,0.00
2012-7-18,97.0,78.1,71.0,-99.9,-99.9,-99.9,0,0,100,0.00,40.00,7,-907,11,0.00
2012-7-19,72.0,69.4,66.0,-99.9,-99.9,-99.9,0,0,100,0.00,40.00,0,-999,0,0.00
2012-7-20,67.0,63.6,61.0,-99.9,-99.9,-99.9,0,0,100,0.00,40.00,0,-999,12,0.00
2012-7-21,75.0,66.6,61.0,-99.9,-99.9,-99.9,0,0,100,0.00,40.00,0,-999,0,0.00
2012-7-22,79.0,68.6,58.0,-99.9,-99.9,-99.9,0,0,100,0.00,40.00,0,-999,0,0.00
2012-7-23,86.0,71.3,64.0,-99.9,-99.9,-99.9,0,0,100,0.00,40.00,3,-919,10,0.00
2012-7-24,88.0,73.1,65.0,-99.9,-99.9,-99.9,0,0,100,0.00,40.00,5,-891,7,0.00
2012-7-25,81.0,70.2,57.0,-99.9,-99.9,-99.9,0,0,100,0.00,40.00,5,-757,12,0.00
2012-7-26,84.0,69.7,62.0,-99.9,-99.9,-99.9,0,0,100,0.00,40.00,7,-801,10,0.00
2012-7-27,83.0,73.6,69.0,-99.9,-99.9,-99.9,0,0,100,0.00,40.00,3,-955,7,0.00
2012-7-28,81.0,70.1,67.0,-99.9,-99.9,-99.9,0,0,100,0.00,40.00,2,-964,9,0.00
2012-7-29,75.0,69.5,66.0,-99.9,-99.9,-99.9,0,0,100,0.00,40.00,0,-999,5,0.00
2012-7-30,80.0,70.6,65.0,-99.9,-99.9,-99.9,0,0,100,0.00,40.00,7,-806,8,0.00
2012-7-31,78.0,70.6,65.0,-99.9,-99.9,-99.9,0,0,100,0.00,40.00,6,-900,6,0.00
2012-8-1,80.0,70.1,65.0,-99.9,-99.9,-99.9,0,0,100,0.00,40.00,4,-949,10,0.00
2012-8-2,86.0,72.4,64.0,-99.9,-99.9,-99.9,0,0,100,0.00,40.00,6,-922,8,0.00
2012-8-3,87.0,74.4,63.0,-99.9,-99.9,-99.9,0,0,100,0.00,40.00,3,-956,9,0.00
2012-8-4,87.0,75.7,67.0,-99.9,-99.9,-99.9,0,0,100,0.00,40.00,4,-879,8,0.00
2012-8-5,86.0,75.8,70.0,-99.9,-99.9,-99.9,0,0,100,0.00,40.00,5,-880,10,0.00
2012-8-6,78.0,71.8,70.0,-99.9,-99.9,-99.9,0,0,100,0.00,40.00,0,-999,0,0.00
2012-8-8,85.0,78.1,68.0,-99.9,-99.9,-99.9,0,0,100,0.00,40.00,6,-912,6,0.00
2012-8-9,87.0,73.6,64.0,-99.9,-99.9,-99.9,0,0,100,0.00,40.00,5,-737,10,0.00
2012-8-10,74.0,70.0,68.0,-99.9,-99.9,-99.9,0,0,100,0.00,40.00,4,-956,3,0.00
2012-8-11,84.0,73.9,68.0,-99.9,-99.9,-99.9,0,0,100,0.00,40.00,7,-820,12,0.00
2012-8-12,80.0,71.3,64.0,-99.9,-99.9,-99.9,0,0,100,0.00,40.00,5,-867,9,0.00
2012-8-13,80.0,68.5,59.0,-99.9,-99.9,-99.9,0,0,100,0.00,40.00,5,-897,8,0.00
2012-8-14,74.0,66.1,60.0,-99.9,-99.9,-99.9,0,0,100,0.00,40.00,5,-952,8,0.00
2012-8-15,80.0,69.7,65.0,-99.9,-99.9,-99.9,0,0,100,0.00,40.00,3,-947,8,0.00
2012-8-16,81.0,68.8,59.0,-99.9,-99.9,-99.9,0,0,100,0.00,40.00,5,-857,9,0.00
2012-8-17,82.0,68.5,58.0,-99.9,-99.9,-99.9,0,0,100,0.00,40.00,7,-860,10,0.00
2012-8-18,74.0,65.5,55.0,-99.9,-99.9,-99.9,0,0,100,0.00,40.00,3,-870,8,0.00
2012-8-19,71.0,60.5,50.0,-99.9,-99.9,-99.9,0,0,100,0.00,40.00,0,-999,0,0.00
2012-8-20,77.0,64.5,55.0,-99.9,-99.9,-99.9,0,0,100,0.00,40.00,0,-999,0,0.00
2012-8-21,77.0,65.6,59.0,-99.9,-99.9,-99.9,0,0,100,0.00,40.00,3,-947,6,0.00
2012-8-22,81.0,66.9,55.0,-99.9,-99.9,-99.9,0,0,100,0.00,40.00,0,-999,0,0.00
2012-8-23,84.0,67.8,58.0,-99.9,-99.9,-99.9,0,0,100,0.00,40.00,0,-999,0,0.00
2012-8-24,83.0,69.0,58.0,-99.9,-99.9,-99.9,0,0,100,0.00,40.00,0,-999,0,0.00
2012-8-25,79.0,71.0,62.0,-99.9,-99.9,-99.9,0,0,100,0.00,40.00,0,-999,5,0.00
2012-8-26,82.0,70.9,59.0,-99.9,-99.9,-99.9,0,0,100,0.00,40.00,7,-857,9,0.00
2012-8-27,82.0,72.0,64.0,-99.9,-99.9,-99.9,0,0,100,0.00,40.00,8,-902,10,0.00
2012-8-28,83.0,72.4,62.0,-99.9,-99.9,-99.9,0,0,100,0.00,40.00,5,-830,11,0.00
2012-8-29,75.0,63.4,55.0,-99.9,-99.9,-99.9,0,0,100,0.00,40.00,3,-948,9,0.00
2012-8-30,80.0,62.7,49.0,-99.9,-99.9,-99.9,0,0,100,0.00,40.00,5,-906,8,0.00
2012-8-31,87.0,67.2,49.0,-99.9,-99.9,-99.9,0,0,100,0.00,40.00,5,-857,10,0.00
2012-9-1,85.0,71.2,62.0,-99.9,-99.9,-99.9,0,0,100,0.00,40.00,8,-844,10,0.00
2012-9-2,76.0,68.7,60.0,-99.9,-99.9,-99.9,0,0,100,0.00,40.00,0,-999,0,0.00
2012-9-3,72.0,68.1,66.0,-99.9,-99.9,-99.9,0,0,100,0.00,40.00,7,-862,13,0.00
2012-9-4,78.0,72.0,66.0,-99.9,-99.9,-99.9,0,0,100,0.00,40.00,4,-856,8,0.00
2012-9-5,74.0,70.1,62.0,-99.9,-99.9,-99.9,0,0,100,0.00,40.00,0,-999,7,0.00
2012-9-6,80.0,66.9,59.0,-99.9,-99.9,-99.9,0,0,100,0.00,40.00,0,-999,7,0.00
2012-9-7,84.0,73.2,65.0,-99.9,-99.9,-99.9,0,0,100,0.00,40.00,5,-896,7,0.00
2012-9-8,84.0,70.7,62.0,-99.9,-99.9,-99.9,0,0,100,0.00,40.00,8,-737,15,0.00
2012-9-9,74.0,63.7,54.0,-99.9,-99.9,-99.9,0,0,100,0.00,40.00,0,-999,5,0.00
2012-9-10,71.0,58.5,48.0,-99.9,-99.9,-99.9,0,0,100,0.00,40.00,6,-726,13,0.00
2012-9-11,72.0,56.8,43.0,-99.9,-99.9,-99.9,0,0,100,0.00,40.00,7,-783,10,0.00
2012-9-12,77.0,60.1,46.0,-99.9,-99.9,-99.9,0,0,100,0.00,40.00,0,-999,10,0.00
2012-9-13,78.0,61.6,49.0,-99.9,-99.9,-99.9,0,0,100,0.00,40.00,8,-822,9,0.00
2012-9-14,79.0,63.6,51.0,-99.9,-99.9,-99.9,0,0,100,0.00,40.00,5,-757,10,0.00
2012-9-15,68.0,59.5,48.0,-99.9,-99.9,-99.9,0,0,100,0.00,40.00,7,-746,11,0.00
2012-9-16,73.0,56.5,44.0,-99.9,-99.9,-99.9,0,0,100,0.00,40.00,4,-867,9,0.00
2012-9-17,76.0,58.4,43.0,-99.9,-99.9,-99.9,0,0,100,0.00,40.00,6,-914,9,0.00
2012-9-18,72.0,66.0,59.0,-99.9,-99.9,-99.9,0,0,100,0.00,40.00,7,-730,31,0.00
2012-9-19,67.0,58.0,46.0,-99.9,-99.9,-99.9,0,0,100,0.00,40.00,8,-865,12,0.00
2012-9-20,69.0,56.0,42.0,-99.9,-99.9,-99.9,0,0,100,0.00,40.00,7,-828,10,0.00
2012-9-21,71.0,61.1,51.0,-99.9,-99.9,-99.9,0,0,100,0.00,40.00,5,-879,8,0.00
2012-9-22,75.0,62.8,52.0,-99.9,-99.9,-99.9,0,0,100,0.00,40.00,5,-914,12,0.00
2012-9-23,67.0,56.3,46.0,-99.9,-99.9,-99.9,0,0,100,0.00,40.00,10,-828,14,0.00
2012-9-24,66.0,52.2,42.0,-99.9,-99.9,-99.9,0,0,100,0.00,40.00,6,-914,13,0.00
2012-9-25,71.0,53.7,38.0,-99.9,-99.9,-99.9,0,0,100,0.00,40.00,8,-697,14,0.00
2012-9-26,70.0,61.6,55.0,-99.9,-99.9,-99.9,0,0,100,0.00,40.00,5,-915,10,0.00
2012-9-27,73.0,64.3,58.0,-99.9,-99.9,-99.9,0,0,100,0.00,40.00,3,-915,9,0.00
2012-9-28,63.0,57.6,54.0,-99.9,-99.9,-99.9,0,0,100,0.00,40.00,0,-999,0,0.00
2012-9-29,62.0,57.3,54.0,-99.9,-99.9,-99.9,0,0,100,0.00,40.00,3,-953,9,0.00
2012-9-30,66.0,53.8,45.0,-99.9,-99.9,-99.9,0,0,100,0.00,40.00,4,-872,11,0.00
2012-10-1,69.0,54.5,43.0,-99.9,-99.9,-99.9,0,0,100,0.00,40.00,4,-883,10,0.00
2012-10-2,60.0,57.7,54.0,-99.9,-99.9,-99.9,0,0,100,0.00,40.00,0,-999,0,0.00
2012-10-3,68.0,63.2,59.0,-99.9,-99.9,-99.9,0,0,100,0.00,40.00,0,-999,0,0.00
2012-10-4,70.0,64.4,59.0,-99.9,-99.9,-99.9,0,0,100,0.00,40.00,0,-999,0,0.00
2012-10-5,76.0,62.8,52.0,-99.9,-99.9,-99.9,0,0,100,0.00,40.00,5,-862,8,0.00
2012-10-6,68.0,56.4,45.0,-99.9,-99.9,-99.9,0,0,100,0.00,40.00,5,-694,14,0.00
2012-10-7,53.0,46.3,40.0,-99.9,-99.9,-99.9,0,0,100,0.00,40.00,5,-956,6,0.00
2012-10-8,52.0,44.6,36.0,-99.9,-99.9,-99.9,0,0,100,0.00,40.00,0,-999,3,0.00
2012-10-9,57.0,50.6,44.0,-99.9,-99.9,-99.9,0,0,100,0.00,40.00,5,-905,7,0.00
2012-10-10,63.0,55.2,48.0,-99.9,-99.9,-99.9,0,0,100,0.00,40.00,5,-832,12,0.00
2012-10-11,58.0,48.3,38.0,-99.9,-99.9,-99.9,0,0,100,0.00,40.00,7,-731,11,0.00
2012-10-12,56.0,41.1,33.0,-99.9,-99.9,-99.9,0,0,100,0.00,40.00,7,-805,15,0.00
2012-10-13,53.0,39.4,27.0,-99.9,-99.9,-99.9,0,0,100,0.00,40.00,6,-859,10,0.00
2012-10-14,65.0,54.4,45.0,-99.9,-99.9,-99.9,0,0,100,0.00,40.00,8,-569,13,0.00
2012-10-15,67.0,59.4,52.0,-99.9,-99.9,-99.9,0,0,100,0.00,40.00,4,-912,10,0.00
2012-10-16,58.0,48.5,37.0,-99.9,-99.9,-99.9,0,0,100,0.00,40.00,6,-790,14,0.00
2012-10-17,62.0,44.5,32.0,-99.9,-99.9,-99.9,0,0,100,0.00,40.00,6,-921,7,0.00
2012-10-18,65.0,52.9,37.0,-99.9,-99.9,-99.9,0,0,100,0.00,40.00,6,-683,15,0.00
2012-10-19,67.0,63.5,60.0,-99.9,-99.9,-99.9,0,0,100,0.00,40.00,8,-758,17,0.00
2012-10-20,63.0,54.7,41.0,-99.9,-99.9,-99.9,0,0,100,0.00,40.00,6,-821,10,0.00
2012-10-21,66.0,49.4,38.0,-99.9,-99.9,-99.9,0,0,100,0.00,40.00,6,-794,9,0.00
2012-10-22,68.0,51.8,39.0,-99.9,-99.9,-99.9,0,0,100,0.00,40.00,6,-913,9,0.00
2012-10-23,58.0,49.4,41.0,-99.9,-99.9,-99.9,0,0,100,0.00,40.00,0,-999,4,0.00
2012-10-24,64.0,55.9,52.0,-99.9,-99.9,-99.9,0,0,100,0.00,40.00,3,-956,7,0.00
2012-10-25,60.0,56.9,55.0,-99.9,-99.9,-99.9,0,0,100,0.00,40.00,6,-906,8,0.00
2012-10-26,63.0,58.1,55.0,-99.9,-99.9,-99.9,0,0,100,0.00,40.00,0,-999,0,0.00
2012-10-27,62.0,58.0,53.0,-99.9,-99.9,-99.9,0,0,100,0.00,40.00,0,-999,3,0.00
2012-10-28,56.0,54.7,53.0,-99.9,-99.9,-99.9,0,0,100,0.00,40.00,12,-385,19,0.00
2012-10-29,57.0,53.7,52.0,-99.9,-99.9,-99.9,0,0,100,0.00,40.00,13,-171,27,0.00
2012-10-31,42.0,42.0,42.0,-99.9,-99.9,-99.9,0,0,100,0.00,40.00,0,-999,0,0.00
2012-11-1,48.0,44.1,40.0,-99.9,-99.9,-99.9,0,0,100,0.00,40.00,7,-746,10,0.00
2012-11-2,49.0,44.3,40.0,-99.9,-99.9,-99.9,0,0,100,0.00,40.00,5,-754,14,0.00
2012-11-3,47.0,41.9,38.0,-99.9,-99.9,-99.9,0,0,100,0.00,40.00,6,-521,13,0.00
2012-11-4,46.0,40.9,36.0,-99.9,-99.9,-99.9,0,0,100,0.00,40.00,7,-492,13,0.00
2012-11-5,45.0,36.7,26.0,-99.9,-99.9,-99.9,0,0,100,0.00,40.00,8,-780,14,0.00
2012-11-6,42.0,30.3,20.0,-99.9,-99.9,-99.9,0,0,100,0.00,40.00,3,-957,9,0.00
2012-11-7,40.0,34.5,29.0,-99.9,-99.9,-99.9,0,0,100,0.00,40.00,12,-544,16,0.00
2012-11-8,47.0,39.4,33.0,-99.9,-99.9,-99.9,0,0,100,0.00,40.00,9,-459,19,0.00
2012-11-9,52.0,40.0,31.0,-99.9,-99.9,-99.9,0,0,100,0.00,40.00,6,-785,12,0.00
2012-11-10,52.0,39.8,29.0,-99.9,-99.9,-99.9,0,0,100,0.00,40.00,0,-999,6,0.00
2012-11-11,64.0,45.8,33.0,-99.9,-99.9,-99.9,0,0,100,0.00,40.00,3,-911,9,0.00
2012-11-12,65.0,52.3,35.0,-99.9,-99.9,-99.9,0,0,100,0.00,40.00,7,-635,14,0.00
2012-11-13,61.0,43.5,34.0,-99.9,-99.9,-99.9,0,0,100,0.00,40.00,5,-792,18,0.00
2012-11-14,46.0,36.2,26.0,-99.9,-99.9,-99.9,0,0,100,30.50,30.47,4,-871,14,0.00
2012-11-15,44.0,32.9,26.0,-99.9,-99.9,-99.9,0,0,100,30.50,30.33,5,-874,9,0.00
2012-11-16,47.0,34.7,28.0,-99.9,-99.9,-99.9,0,0,100,30.47,30.32,0,-999,6,0.00
2012-11-17,50.0,34.8,24.0,-99.9,-99.9,-99.9,0,0,100,30.66,30.47,7,-807,13,0.00
2012-11-18,47.0,32.5,24.0,-99.9,-99.9,-99.9,0,0,100,30.68,30.58,6,-852,6,0.00
2012-11-19,49.0,33.7,24.0,-99.9,-99.9,-99.9,0,0,100,30.58,30.31,3,-953,9,0.00
2012-11-20,51.0,35.5,26.0,-99.9,-99.9,-99.9,0,0,100,30.25,30.13,3,-954,6,0.00
2012-11-21,52.0,36.1,26.0,-99.9,-99.9,-99.9,0,0,100,30.27,30.17,5,-955,10,0.00
2012-11-22,55.0,36.2,23.0,-99.9,-99.9,-99.9,0,0,100,30.30,30.16,0,-999,6,0.00
2012-11-23,57.0,41.2,24.0,-99.9,-99.9,-99.9,0,0,100,30.16,29.73,4,-900,13,0.00
2012-11-24,45.0,37.4,31.0,-99.9,-99.9,-99.9,0,0,100,29.90,29.73,9,-725,11,0.00
2012-11-25,38.0,34.2,29.0,-99.9,-99.9,-99.9,0,0,100,29.98,29.88,9,-824,13,0.00
2012-11-26,47.0,34.9,25.0,-99.9,-99.9,-99.9,0,0,100,30.27,29.98,6,-859,8,0.00
2012-11-27,33.0,31.5,26.0,-99.9,-99.9,-99.9,0,0,100,30.29,30.22,0,-999,0,0.00
2012-11-28,39.0,31.0,23.0,-99.9,-99.9,-99.9,0,0,100,30.31,30.21,0,-999,6,0.00
2012-11-29,41.0,29.2,21.0,-99.9,-99.9,-99.9,0,0,100,30.37,30.28,13,-778,15,0.00
2012-11-30,40.0,30.1,23.0,-99.9,-99.9,-99.9,0,0,100,30.46,30.34,5,-760,8,0.00
2012-12-1,35.0,32.1,29.0,-99.9,-99.9,-99.9,0,0,100,30.53,30.45,6,-771,10,0.00
2012-12-2,43.0,38.0,33.0,-99.9,-99.9,-99.9,0,0,100,30.45,30.14,0,-999,5,0.00
2012-12-3,60.0,44.1,34.0,-99.9,-99.9,-99.9,0,0,100,30.28,30.14,0,-999,5,0.00
2012-12-4,59.0,48.5,41.0,-99.9,-99.9,-99.9,0,0,100,30.28,30.00,0,-999,6,0.00
2012-12-5,52.0,43.8,30.0,-99.9,-99.9,-99.9,0,0,100,30.28,29.95,12,-557,18,0.00
2012-12-6,40.0,29.7,22.0,-99.9,-99.9,-99.9,0,0,100,30.38,30.28,4,-907,11,0.00
2012-12-7,37.0,31.6,22.0,-99.9,-99.9,-99.9,0,0,100,30.29,30.03,0,-999,0,0.00
2012-12-8,45.0,41.7,37.0,-99.9,-99.9,-99.9,0,0,100,30.03,29.90,0,-999,0,0.00
2012-12-9,45.0,40.3,38.0,-99.9,-99.9,-99.9,0,0,100,30.27,30.03,9,-833,9,0.00
2012-12-10,49.0,43.5,39.0,-99.9,-99.9,-99.9,0,0,100,30.03,29.58,3,-951,13,0.00
2012-12-11,47.0,40.1,29.0,-99.9,-99.9,-99.9,0,0,100,30.22,29.69,6,-868,13,0.00
2012-12-12,41.0,31.6,26.0,-99.9,-99.9,-99.9,0,0,100,30.46,30.22,0,-999,7,0.00
2012-12-13,44.0,30.4,22.0,-99.9,-99.9,-99.9,0,0,100,30.48,30.34,4,-859,8,0.00
2012-12-14,47.0,30.3,19.0,-99.9,-99.9,-99.9,0,0,100,30.34,30.17,6,-832,10,0.00
2012-12-15,46.0,32.8,23.0,-99.9,-99.9,-99.9,0,0,100,30.33,30.20,5,-957,7,0.00
2012-12-16,42.0,39.7,36.0,-99.9,-99.9,-99.9,0,0,100,30.20,29.92,0,-999,6,0.00
2012-12-17,40.0,38.2,36.0,-99.9,-99.9,-99.9,0,0,100,29.93,29.62,3,-955,7,0.00
2012-12-18,50.0,42.2,38.0,-99.9,-99.9,-99.9,0,0,100,29.69,29.50,8,-822,10,0.00
2012-12-19,46.0,38.9,31.0,-99.9,-99.9,-99.9,0,0,100,30.16,29.69,13,-616,15,0.00
2012-12-20,43.0,34.7,27.0,-99.9,-99.9,-99.9,0,0,100,30.23,29.76,7,-734,13,0.00
2012-12-21,54.0,41.2,34.0,-99.9,-99.9,-99.9,0,0,100,29.76,29.14,13,-204,32,0.00
2012-12-22,37.0,34.8,33.0,-99.9,-99.9,-99.9,0,0,100,29.88,29.36,9,-333,18,0.00
2012-12-23,39.0,33.8,23.0,-99.9,-99.9,-99.9,0,0,100,29.98,29.88,12,-664,16,0.00
2012-12-24,37.0,28.1,20.0,-99.9,-99.9,-99.9,0,0,100,30.11,29.93,0,-999,9,0.00
2012-12-25,37.0,32.6,28.0,-99.9,-99.9,-99.9,0,0,100,30.27,29.93,5,-859,11,0.00
2012-12-26,29.0,26.1,24.0,-99.9,-99.9,-99.9,0,0,100,30.30,29.56,9,-492,16,0.00
2012-12-27,36.0,31.7,27.0,-99.9,-99.9,-99.9,0,0,100,29.90,29.40,10,-412,15,0.00
2012-12-28,36.0,28.7,20.0,-99.9,-99.9,-99.9,0,0,100,30.10,29.89,7,-827,17,0.00
2012-12-29,29.0,26.3,20.0,-99.9,-99.9,-99.9,0,0,100,30.07,29.57,0,-999,8,0.00
2012-12-30,33.0,27.7,19.0,-99.9,-99.9,-99.9,0,0,100,30.21,29.66,9,-629,20,0.00
2012-12-31,36.0,29.1,17.0,-99.9,-99.9,-99.9,0,0,100,30.21,29.92,6,-872,13,0.00
2013-1-1,37.0,32.1,22.0,-99.9,-99.9,-99.9,0,0,100,30.04,29.88,3,-953,11,0.00